createdAt,value
2022-11-24T00:01:12.529Z,99887.34
2022-11-24T00:03:40.392Z,99888.13
2022-11-24T00:06:10.874Z,99888.09
2022-11-24T00:08:41.710Z,99888.91
2022-11-24T00:11:11.314Z,99891.50
2022-11-24T00:13:40.180Z,99881.03
2022-11-24T00:16:10.815Z,99887.16
2022-11-24T00:18:40.035Z,99875.81
2022-11-24T00:21:08.465Z,99884.41
2022-11-24T00:23:37.213Z,99895.66
2022-11-24T00:26:08.399Z,99893.88
2022-11-24T00:28:37.579Z,99892.97
2022-11-24T00:31:07.594Z,99885.03
2022-11-24T00:33:35.858Z,99880.69
2022-11-24T00:36:03.857Z,99891.94
2022-11-24T00:38:31.659Z,99887.66
2022-11-24T00:40:59.440Z,99885.03
2022-11-24T00:43:28.698Z,99889.44
2022-11-24T00:45:56.586Z,99888.56
2022-11-24T00:48:24.438Z,99889.38
2022-11-24T00:50:59.960Z,99889.38
2022-11-24T00:53:28.464Z,99897.22
2022-11-24T00:55:57.054Z,99897.22
2022-11-24T00:58:25.824Z,99899.88
2022-11-24T01:00:54.981Z,99897.34
2022-11-24T01:03:23.089Z,99906.19
2022-11-24T01:05:50.848Z,99910.66
2022-11-24T01:08:18.713Z,99915.97
2022-11-24T01:10:46.453Z,99926.50
2022-11-24T01:13:14.257Z,99921.38
2022-11-24T01:15:42.002Z,99925.81
2022-11-24T01:18:11.153Z,99928.63
2022-11-24T01:20:39.024Z,99942.00
2022-11-24T01:23:07.573Z,99930.84
2022-11-24T01:25:35.320Z,99936.25
2022-11-24T01:28:03.200Z,99938.94
2022-11-24T01:30:30.965Z,99935.53
2022-11-24T01:32:58.714Z,99938.19
2022-11-24T01:35:27.837Z,99931.22
2022-11-24T01:37:55.607Z,99934.75
2022-11-24T01:40:23.485Z,99940.94
2022-11-24T01:42:53.672Z,99934.78
2022-11-24T01:45:32.653Z,99931.34
2022-11-24T01:48:03.551Z,99944.47
2022-11-24T01:50:33.874Z,99949.78
2022-11-24T01:53:01.688Z,99955.09
2022-11-24T01:55:34.601Z,99964.84
2022-11-24T01:58:06.596Z,99961.41
2022-11-24T02:00:37.414Z,99969.25
2022-11-24T02:03:05.305Z,99961.41
2022-11-24T02:05:44.212Z,99966.63
2022-11-24T02:08:18.571Z,99971.00
2022-11-24T02:10:47.256Z,99971.00
2022-11-24T02:13:15.916Z,99978.88
2022-11-24T02:15:43.982Z,99971.94
2022-11-24T02:18:11.877Z,99975.53
2022-11-24T02:20:41.046Z,99970.47
2022-11-24T02:23:18.291Z,99973.19
2022-11-24T02:25:52.948Z,99975.91
2022-11-24T02:28:24.726Z,99976.84
2022-11-24T02:30:53.842Z,99980.38
2022-11-24T02:33:25.272Z,99987.44
2022-11-24T02:35:53.096Z,99992.75
2022-11-24T02:38:30.040Z,99981.44
2022-11-24T02:40:58.767Z,99987.53
2022-11-24T02:43:31.581Z,99983.16
2022-11-24T02:45:59.386Z,99989.31
2022-11-24T02:48:27.201Z,99991.06
2022-11-24T02:50:54.974Z,99994.53
2022-11-24T02:53:22.755Z,99996.31
2022-11-24T02:55:50.478Z,100006.81
2022-11-24T02:58:18.301Z,100005.13
2022-11-24T03:00:47.429Z,100005.22
2022-11-24T03:03:15.581Z,100006.13
2022-11-24T03:05:43.371Z,100002.69
2022-11-24T03:08:11.280Z,100006.19
2022-11-24T03:10:39.026Z,100010.56
2022-11-24T03:13:06.810Z,100007.09
2022-11-24T03:15:35.258Z,100007.09
2022-11-24T03:18:04.848Z,100009.75
2022-11-24T03:20:32.588Z,100009.78
2022-11-24T03:23:00.364Z,100012.44
2022-11-24T03:25:28.084Z,100017.75
2022-11-24T03:27:58.025Z,100016.03
2022-11-24T03:30:25.901Z,100018.72
2022-11-24T03:32:54.250Z,100026.59
2022-11-24T03:35:24.028Z,100022.22
2022-11-24T03:37:51.767Z,100018.72
2022-11-24T03:40:19.687Z,100017.81
2022-11-24T03:42:47.579Z,100017.81
2022-11-24T03:45:44.337Z,100022.13
2022-11-24T03:48:03.852Z,100023.94
2022-11-24T03:50:32.912Z,100015.25
2022-11-24T03:53:00.641Z,100025.75
2022-11-24T03:55:28.377Z,100025.78
2022-11-24T03:57:56.170Z,100021.44
2022-11-24T04:00:24.140Z,100020.59
2022-11-24T04:02:51.916Z,100023.22
2022-11-24T04:05:19.894Z,100018.91
2022-11-24T04:07:49.114Z,100024.16
2022-11-24T04:10:17.098Z,100025.94
2022-11-24T04:12:46.583Z,100023.34
2022-11-24T04:15:16.266Z,100027.69
2022-11-24T04:17:44.426Z,100027.66
2022-11-24T04:20:13.443Z,100032.88
2022-11-24T04:22:41.467Z,100028.56
2022-11-24T04:25:11.756Z,100022.47
2022-11-24T04:27:39.892Z,100041.69
2022-11-24T04:30:09.022Z,100042.56
2022-11-24T04:32:37.128Z,100038.19
2022-11-24T04:35:05.702Z,100053.06
2022-11-24T04:37:33.443Z,100058.28
2022-11-24T04:40:01.292Z,100053.09
2022-11-24T04:42:30.392Z,100055.75
2022-11-24T04:44:58.149Z,100047.06
2022-11-24T04:47:27.424Z,100056.69
2022-11-24T04:49:55.173Z,100054.97
2022-11-24T04:52:24.375Z,100056.81
2022-11-24T04:54:52.657Z,100071.63
2022-11-24T04:57:22.797Z,100072.50
2022-11-24T04:59:52.601Z,100076.06
2022-11-24T05:02:21.088Z,100077.00
2022-11-24T05:04:48.996Z,100072.63
2022-11-24T05:07:19.079Z,100082.25
2022-11-24T05:10:05.296Z,100087.53
2022-11-24T05:12:33.214Z,100089.28
2022-11-24T05:15:04.420Z,100098.00
2022-11-24T05:17:33.575Z,100091.06
2022-11-24T05:20:01.635Z,100100.69
2022-11-24T05:22:29.597Z,100106.81
2022-11-24T05:24:57.386Z,100102.50
2022-11-24T05:27:25.526Z,100104.28
2022-11-24T05:29:53.317Z,100093.00
2022-11-24T05:32:22.401Z,100105.25
2022-11-24T05:34:50.479Z,100103.50
2022-11-24T05:37:18.241Z,100120.97
2022-11-24T05:39:46.027Z,100114.06
2022-11-24T05:42:43.525Z,100109.66
2022-11-24T05:45:16.860Z,100116.72
2022-11-24T05:47:46.520Z,100124.59
2022-11-24T05:50:16.376Z,100126.34
2022-11-24T05:52:44.253Z,100127.28
2022-11-24T05:55:14.613Z,100127.31
2022-11-24T05:57:43.118Z,100135.16
2022-11-24T06:00:12.299Z,100129.97
2022-11-24T06:02:42.878Z,100134.38
2022-11-24T06:05:12.091Z,100137.88
2022-11-24T06:07:39.957Z,100146.69
2022-11-24T06:10:08.164Z,100144.06
2022-11-24T06:12:36.486Z,100139.72
2022-11-24T06:15:04.584Z,100142.34
2022-11-24T06:17:32.309Z,100148.47
2022-11-24T06:20:00.097Z,100146.72
2022-11-24T06:22:29.246Z,100145.88
2022-11-24T06:24:56.944Z,100159.84
2022-11-24T06:27:24.861Z,100163.38
2022-11-24T06:29:52.679Z,100155.53
2022-11-24T06:32:20.659Z,100154.72
2022-11-24T06:34:48.416Z,100160.81
2022-11-24T06:37:16.142Z,100162.53
2022-11-24T06:39:45.212Z,100163.38
2022-11-24T06:42:12.937Z,100154.69
2022-11-24T06:44:42.067Z,100156.44
2022-11-24T06:47:09.874Z,100159.06
2022-11-24T06:49:37.683Z,100164.31
2022-11-24T06:52:05.820Z,100158.19
2022-11-24T06:54:33.940Z,100164.31
2022-11-24T06:57:03.260Z,100169.56
2022-11-24T06:59:31.052Z,100179.16
2022-11-24T07:01:58.781Z,100180.97
2022-11-24T07:04:26.566Z,100181.84
2022-11-24T07:06:54.314Z,100183.63
2022-11-24T07:09:22.032Z,100187.97
2022-11-24T07:11:50.021Z,100195.88
2022-11-24T07:14:19.188Z,100198.53
2022-11-24T07:16:47.029Z,100200.34
2022-11-24T07:19:17.009Z,100212.63
2022-11-24T07:21:47.970Z,100208.28
2022-11-24T07:24:15.866Z,100210.94
2022-11-24T07:26:43.675Z,100206.63
2022-11-24T07:29:11.427Z,100211.88
2022-11-24T07:31:40.608Z,100214.59
2022-11-24T07:34:08.407Z,100219.88
2022-11-24T07:36:36.116Z,100227.78
2022-11-24T07:39:03.834Z,100220.88
2022-11-24T07:41:31.540Z,100225.28
2022-11-24T07:43:59.346Z,100228.91
2022-11-24T07:46:27.388Z,100234.19
2022-11-24T07:48:56.529Z,100239.50
2022-11-24T07:51:24.262Z,100243.09
2022-11-24T07:53:52.079Z,100253.63
2022-11-24T07:56:19.947Z,100245.00
2022-11-24T07:58:52.638Z,100242.41
2022-11-24T08:01:21.283Z,100245.13
2022-11-24T08:03:49.112Z,100244.34
2022-11-24T08:06:29.067Z,100251.44
2022-11-24T08:09:03.963Z,100248.88
2022-11-24T08:11:32.918Z,100249.00
2022-11-24T08:14:01.053Z,100248.22
2022-11-24T08:16:28.812Z,100255.31
2022-11-24T08:18:57.209Z,100255.44
2022-11-24T08:21:26.634Z,100255.56
2022-11-24T08:23:58.701Z,100259.22
2022-11-24T08:26:27.327Z,100262.81
2022-11-24T08:28:57.491Z,100258.59
2022-11-24T08:31:32.517Z,100264.81
2022-11-24T08:34:01.195Z,100267.56
2022-11-24T08:36:30.836Z,100271.22
2022-11-24T08:39:00.706Z,100271.34
2022-11-24T08:41:29.997Z,100275.00
2022-11-24T08:43:57.999Z,100269.84
2022-11-24T08:46:26.005Z,100278.75
2022-11-24T08:48:55.811Z,100278.00
2022-11-24T08:51:25.917Z,100272.88
2022-11-24T08:53:58.302Z,100279.97
2022-11-24T08:56:27.110Z,100275.69
2022-11-24T08:58:55.575Z,100289.78
2022-11-24T09:01:24.520Z,100291.69
2022-11-24T09:03:52.486Z,100281.25
2022-11-24T09:06:23.682Z,100291.84
2022-11-24T09:08:51.839Z,100294.53
2022-11-24T09:11:21.750Z,100291.09
2022-11-24T09:13:49.774Z,100294.69
2022-11-24T09:16:19.915Z,100299.16
2022-11-24T09:18:48.736Z,100298.34
2022-11-24T09:21:18.784Z,100301.03
2022-11-24T09:23:48.453Z,100306.38
2022-11-24T09:26:18.209Z,100301.19
2022-11-24T09:28:48.148Z,100300.38
2022-11-24T09:31:17.991Z,100305.69
2022-11-24T09:33:46.702Z,100310.97
2022-11-24T09:36:16.536Z,100315.47
2022-11-24T09:38:44.370Z,100306.75
2022-11-24T09:41:37.187Z,100308.63
2022-11-24T09:44:12.784Z,100305.19
2022-11-24T09:46:45.408Z,100309.63
2022-11-24T09:49:18.574Z,100307.09
2022-11-24T09:51:50.742Z,100308.88
2022-11-24T09:54:22.889Z,100313.38
2022-11-24T09:56:51.532Z,100315.16
2022-11-24T09:59:22.659Z,100310.84
2022-11-24T10:01:52.255Z,100318.81
2022-11-24T10:04:23.309Z,100325.00
2022-11-24T10:06:56.741Z,100337.34
2022-11-24T10:09:41.566Z,100328.69
2022-11-24T10:12:21.422Z,100341.03
2022-11-24T10:15:00.084Z,100337.63
2022-11-24T10:17:45.421Z,100335.91
2022-11-24T10:20:19.731Z,100333.31
2022-11-24T10:22:53.375Z,100336.00
2022-11-24T10:25:25.499Z,100340.41
2022-11-24T10:27:59.976Z,100342.16
2022-11-24T10:30:30.215Z,100336.06
2022-11-24T10:33:02.370Z,100340.47
2022-11-24T10:35:36.667Z,100336.13
2022-11-24T10:38:15.145Z,100343.19
2022-11-24T10:41:02.208Z,100345.00
2022-11-24T10:43:30.295Z,100343.34
2022-11-24T10:46:09.430Z,100353.06
2022-11-24T10:48:42.447Z,100345.22
2022-11-24T10:51:38.042Z,100343.59
2022-11-24T10:54:11.282Z,100342.81
2022-11-24T10:56:43.056Z,100332.34
2022-11-24T10:59:39.373Z,100334.22
2022-11-24T11:02:37.134Z,100335.25
2022-11-24T11:05:30.858Z,100333.72
2022-11-24T11:08:17.157Z,100336.59
2022-11-24T11:10:46.198Z,100335.03
2022-11-24T11:13:29.205Z,100334.25
2022-11-24T11:15:58.657Z,100335.25
2022-11-24T11:18:33.466Z,100337.09
2022-11-24T11:21:03.112Z,100338.09
2022-11-24T11:23:33.462Z,100332.06
2022-11-24T11:26:31.064Z,100340.97
2022-11-24T11:34:52.116Z,100350.91
2022-11-24T11:37:20.972Z,100347.44
2022-11-24T11:39:50.804Z,100341.31
2022-11-24T11:42:53.505Z,100347.53
2022-11-24T11:45:16.323Z,100348.47
2022-11-24T11:47:48.902Z,100355.53
2022-11-24T11:50:23.491Z,100356.44
2022-11-24T11:53:08.843Z,100358.22
2022-11-24T11:55:59.279Z,100360.88
2022-11-24T11:59:02.044Z,100359.97
2022-11-24T12:02:05.244Z,100367.03
2022-11-24T12:04:45.513Z,100368.81
2022-11-24T12:07:57.637Z,100365.28
2022-11-24T12:10:36.845Z,100367.91
2022-11-24T12:13:20.294Z,100361.72
2022-11-24T12:15:51.129Z,100359.91
2022-11-24T12:21:27.776Z,100370.53
2022-11-24T12:24:09.307Z,100368.75
2022-11-24T12:26:45.383Z,100374.03
2022-11-24T12:29:54.457Z,100371.44
2022-11-24T12:32:41.193Z,100377.59
2022-11-24T12:35:21.138Z,100376.66
2022-11-24T12:37:59.045Z,100373.97
2022-11-24T12:40:46.364Z,100376.66
2022-11-24T12:43:23.916Z,100380.19
2022-11-24T12:45:59.166Z,100376.66
2022-11-24T12:48:39.955Z,100380.19
2022-11-24T12:51:16.037Z,100382.88
2022-11-24T12:53:46.018Z,100386.38
2022-11-24T12:56:17.983Z,100389.94
2022-11-24T12:58:52.566Z,100390.81
2022-11-24T13:01:31.988Z,100400.53
2022-11-24T13:04:12.585Z,100400.53
2022-11-24T13:06:49.840Z,100412.03
2022-11-24T13:09:18.303Z,100407.63
2022-11-24T13:11:48.038Z,100417.34
2022-11-24T13:14:23.944Z,100416.47
2022-11-24T13:17:29.044Z,100424.41
2022-11-24T13:19:47.382Z,100425.31
2022-11-24T13:22:18.993Z,100427.94
2022-11-24T13:24:46.815Z,100436.78
2022-11-24T13:27:39.877Z,100434.13
2022-11-24T13:30:40.661Z,100448.25
2022-11-24T13:33:29.508Z,100448.22
2022-11-24T13:36:31.942Z,100452.63
2022-11-24T13:39:00.839Z,100451.75
2022-11-24T13:42:09.311Z,100461.44
2022-11-24T13:44:54.944Z,100457.03
2022-11-24T13:47:42.821Z,100464.06
2022-11-24T13:50:15.256Z,100462.25
2022-11-24T13:52:46.366Z,100464.03
2022-11-24T13:55:24.593Z,100466.66
2022-11-24T13:57:54.681Z,100464.00
2022-11-24T14:00:25.220Z,100471.03
2022-11-24T14:02:55.443Z,100476.34
2022-11-24T14:05:28.238Z,100478.06
2022-11-24T14:07:56.134Z,100475.44
2022-11-24T14:10:31.345Z,100476.28
2022-11-24T14:13:17.328Z,100479.81
2022-11-24T14:15:59.332Z,100485.97
2022-11-24T14:18:29.092Z,100478.03
2022-11-24T14:20:57.262Z,100485.94
2022-11-24T14:23:25.633Z,100489.50
2022-11-24T14:25:54.509Z,100484.19
2022-11-24T14:28:25.528Z,100484.16
2022-11-24T14:31:08.336Z,100485.03
2022-11-24T14:33:36.450Z,100482.38
2022-11-24T14:36:04.436Z,100486.75
2022-11-24T14:38:32.153Z,100483.22
2022-11-24T14:41:17.287Z,100477.91
2022-11-24T14:43:45.143Z,100487.56
2022-11-24T14:46:20.649Z,100500.75
2022-11-24T14:48:50.422Z,100503.34
2022-11-24T14:51:23.339Z,100504.16
2022-11-24T14:53:54.360Z,100518.22
2022-11-24T14:56:27.771Z,100513.78
2022-11-24T14:58:57.094Z,100511.94
2022-11-24T15:01:33.825Z,100514.53
2022-11-24T15:04:32.399Z,100516.22
2022-11-24T15:07:17.276Z,100516.16
2022-11-24T15:09:52.331Z,100523.13
2022-11-24T15:12:28.632Z,100523.97
2022-11-24T15:14:59.049Z,100530.09
2022-11-24T15:17:29.862Z,100525.63
2022-11-24T15:20:01.829Z,100534.41
2022-11-24T15:22:39.084Z,100544.88
2022-11-24T15:25:36.870Z,100539.56
2022-11-24T15:28:04.621Z,100543.91
2022-11-24T15:30:35.665Z,100549.97
2022-11-24T15:33:12.861Z,100542.03
2022-11-24T15:35:40.594Z,100543.69
2022-11-24T15:38:08.454Z,100549.78
2022-11-24T15:40:37.393Z,100551.50
2022-11-24T15:43:19.791Z,100558.47
2022-11-24T15:45:47.544Z,100548.75
2022-11-24T15:48:18.307Z,100562.81
2022-11-24T15:50:46.618Z,100555.69
2022-11-24T15:53:20.165Z,100553.00
2022-11-24T15:55:48.710Z,100551.25
2022-11-24T15:58:16.811Z,100557.34
2022-11-24T16:00:45.458Z,100563.50
2022-11-24T16:03:45.133Z,100554.69
2022-11-24T16:06:02.507Z,100557.31
2022-11-24T16:08:30.276Z,100564.28
2022-11-24T16:10:58.109Z,100560.72
2022-11-24T16:13:25.951Z,100564.16
2022-11-24T16:15:53.756Z,100569.38
2022-11-24T16:18:21.557Z,100564.00
2022-11-24T16:20:49.318Z,100569.25
2022-11-24T16:23:19.282Z,100569.16
2022-11-24T16:25:47.031Z,100574.31
2022-11-24T16:28:14.750Z,100572.50
2022-11-24T16:30:42.557Z,100572.41
2022-11-24T16:33:10.325Z,100584.59
2022-11-24T16:35:38.080Z,100575.69
2022-11-24T16:38:05.802Z,100588.75
2022-11-24T16:40:34.887Z,100585.09
2022-11-24T16:43:02.679Z,100587.63
2022-11-24T16:45:30.482Z,100603.25
2022-11-24T16:47:58.295Z,100598.75
2022-11-24T16:50:26.010Z,100598.59
2022-11-24T16:52:53.801Z,100595.81
2022-11-24T16:55:21.601Z,100593.91
2022-11-24T16:57:51.808Z,100597.31
2022-11-24T17:00:20.153Z,100598.03
2022-11-24T17:02:47.981Z,100605.78
2022-11-24T17:05:16.458Z,100604.72
2022-11-24T17:07:44.230Z,100597.56
2022-11-24T17:10:12.208Z,100603.56
2022-11-24T17:12:40.878Z,100606.94
2022-11-24T17:18:23.636Z,100603.09
2022-11-24T17:20:46.855Z,100607.38
2022-11-24T17:23:14.595Z,100606.38
2022-11-24T17:25:42.326Z,100612.41
2022-11-24T17:28:10.072Z,100602.66
2022-11-24T17:30:39.264Z,100601.66
2022-11-24T17:33:07.613Z,100608.50
2022-11-24T17:35:35.400Z,100623.28
2022-11-24T17:38:03.158Z,100627.50
2022-11-24T17:40:31.051Z,100626.50
2022-11-24T17:43:00.150Z,100620.28
2022-11-24T17:45:29.269Z,100621.91
2022-11-24T17:48:00.094Z,100629.66
2022-11-24T17:50:28.008Z,100634.75
2022-11-24T17:52:56.059Z,100621.47
2022-11-24T17:55:23.750Z,100628.38
2022-11-24T17:57:51.607Z,100637.00
2022-11-24T18:00:20.114Z,100638.63
2022-11-24T18:02:47.890Z,100647.28
2022-11-24T18:05:17.228Z,100644.47
2022-11-24T18:07:44.966Z,100649.63
2022-11-24T18:10:12.734Z,100639.91
2022-11-24T18:12:40.508Z,100647.66
2022-11-24T18:15:09.143Z,100654.56
2022-11-24T18:17:36.871Z,100658.00
2022-11-24T18:20:04.967Z,100664.97
2022-11-24T18:23:04.977Z,100664.88
2022-11-24T18:25:23.053Z,100657.78
2022-11-24T18:27:50.928Z,100661.22
2022-11-24T18:30:19.105Z,100663.81
2022-11-24T18:32:46.900Z,100666.34
2022-11-24T18:35:14.611Z,100662.00
2022-11-24T18:37:44.543Z,100666.44
2022-11-24T18:40:12.658Z,100659.38
2022-11-24T18:42:40.368Z,100666.34
2022-11-24T18:45:09.363Z,100656.66
2022-11-24T18:47:37.140Z,100668.88
2022-11-24T18:50:05.886Z,100670.59
2022-11-24T18:52:33.667Z,100666.19
2022-11-24T18:55:04.763Z,100678.44
2022-11-24T18:57:32.898Z,100684.50
2022-11-24T19:00:00.691Z,100681.88
2022-11-24T19:02:28.491Z,100684.50
2022-11-24T19:04:56.206Z,100688.81
2022-11-24T19:07:24.005Z,100688.78
2022-11-24T19:09:51.813Z,100693.19
2022-11-24T19:12:20.865Z,100692.38
2022-11-24T19:14:48.572Z,100688.00
2022-11-24T19:17:16.274Z,100690.66
2022-11-24T19:19:44.008Z,100688.00
2022-11-24T19:22:13.200Z,100689.81
2022-11-24T19:24:41.563Z,100693.34
2022-11-24T19:27:10.722Z,100698.63
2022-11-24T19:29:43.070Z,100696.97
2022-11-24T19:32:11.280Z,100700.53
2022-11-24T19:34:39.448Z,100696.22
2022-11-24T19:37:07.214Z,100707.69
2022-11-24T19:39:34.943Z,100701.59
2022-11-24T19:42:04.696Z,100708.66
2022-11-24T19:44:32.670Z,100721.81
2022-11-24T19:47:02.021Z,100720.13
2022-11-24T19:49:29.889Z,100718.44
2022-11-24T19:51:57.650Z,100727.25
2022-11-24T19:54:25.419Z,100718.56
2022-11-24T19:56:55.404Z,100713.31
2022-11-24T19:59:26.349Z,100718.59
2022-11-24T20:01:55.025Z,100730.91
2022-11-24T20:04:24.627Z,100730.03
2022-11-24T20:06:52.571Z,100731.78
2022-11-24T20:09:20.460Z,100734.44
2022-11-24T20:11:49.559Z,100739.75
2022-11-24T20:14:19.018Z,100732.75
2022-11-24T20:16:47.844Z,100738.91
2022-11-24T20:19:17.414Z,100740.72
2022-11-24T20:21:49.244Z,100732.00
2022-11-24T20:24:18.895Z,100727.69
2022-11-24T20:26:48.977Z,100728.59
2022-11-24T20:29:19.175Z,100733.03
2022-11-24T20:31:48.843Z,100736.56
2022-11-24T20:34:17.191Z,100733.94
2022-11-24T20:36:47.463Z,100737.50
2022-11-24T20:39:17.914Z,100734.03
2022-11-24T20:41:45.909Z,100742.88
2022-11-24T20:44:15.551Z,100740.34
2022-11-24T20:46:44.979Z,100741.28
2022-11-24T20:49:16.233Z,100751.88
2022-11-24T20:51:46.981Z,100751.88
2022-11-24T20:54:17.970Z,100753.75
2022-11-24T20:56:47.326Z,100751.22
2022-11-24T20:59:17.525Z,100756.53
2022-11-24T21:01:46.991Z,100763.56
2022-11-24T21:04:17.050Z,100748.75
2022-11-24T21:06:44.810Z,100763.69
2022-11-24T21:09:12.728Z,100754.94
2022-11-24T21:11:41.873Z,100752.38
2022-11-24T21:14:10.413Z,100757.66
2022-11-24T21:16:39.990Z,100760.28
2022-11-24T21:19:11.308Z,100765.50
2022-11-24T21:21:40.460Z,100769.91
2022-11-24T21:24:12.154Z,100763.75
2022-11-24T21:26:42.339Z,100768.09
2022-11-24T21:29:14.130Z,100763.69
2022-11-24T21:31:42.593Z,100772.41
2022-11-24T21:34:11.199Z,100772.47
2022-11-24T21:36:41.709Z,100775.03
2022-11-24T21:39:13.136Z,100766.31
2022-11-24T21:41:43.179Z,100769.84
2022-11-24T21:44:11.982Z,100775.97
2022-11-24T21:46:45.089Z,100771.59
2022-11-24T21:49:15.984Z,100768.09
2022-11-24T21:51:43.809Z,100770.75
2022-11-24T21:54:11.769Z,100776.00
2022-11-24T21:56:39.516Z,100774.28
2022-11-24T21:59:08.764Z,100783.88
2022-11-24T22:01:36.531Z,100782.19
2022-11-24T22:04:04.416Z,100782.19
2022-11-24T22:06:33.264Z,100782.19
2022-11-24T22:09:01.275Z,100777.84
2022-11-24T22:11:29.047Z,100783.09
2022-11-24T22:13:56.842Z,100785.72
2022-11-24T22:16:26.617Z,100780.47
2022-11-24T22:18:55.231Z,100786.59
2022-11-24T22:21:29.871Z,100787.50
2022-11-24T22:23:58.037Z,100784.84
2022-11-24T22:26:26.598Z,100784.03
2022-11-24T22:28:54.972Z,100781.41
2022-11-24T22:31:24.997Z,100778.78
2022-11-24T22:33:55.213Z,100785.81
2022-11-24T22:36:24.717Z,100791.06
2022-11-24T22:38:54.924Z,100792.78
2022-11-24T22:41:23.214Z,100797.19
2022-11-24T22:43:51.667Z,100792.81
2022-11-24T22:46:21.520Z,100800.75
2022-11-24T22:48:52.788Z,100796.34
2022-11-24T22:51:24.601Z,100803.34
2022-11-24T22:53:55.593Z,100801.59
2022-11-24T22:56:24.407Z,100806.00
2022-11-24T22:58:52.693Z,100799.91
2022-11-24T23:01:22.661Z,100800.75
2022-11-24T23:03:53.597Z,100804.25
2022-11-24T23:06:24.296Z,100804.25
2022-11-24T23:08:53.132Z,100811.31
2022-11-24T23:11:27.863Z,100811.25
2022-11-24T23:14:01.243Z,100807.81
2022-11-24T23:16:29.949Z,100812.13
2022-11-24T23:18:58.289Z,100810.44
2022-11-24T23:21:29.126Z,100805.16
2022-11-24T23:23:57.660Z,100808.69
2022-11-24T23:26:27.491Z,100801.63
2022-11-24T23:28:55.683Z,100806.00
2022-11-24T23:31:27.418Z,100811.25
2022-11-24T23:33:55.351Z,100804.19
2022-11-24T23:36:23.422Z,100807.66
2022-11-24T23:38:52.950Z,100816.34
2022-11-24T23:41:22.468Z,100803.16
2022-11-24T23:43:50.970Z,100800.47
2022-11-24T23:46:20.948Z,100795.13
2022-11-24T23:48:49.429Z,100806.41
2022-11-24T23:51:19.135Z,100810.78
2022-11-24T23:53:47.623Z,100802.81
2022-11-24T23:56:18.515Z,100802.78
2022-11-24T23:58:46.658Z,100803.66
